sensor_id;sensor_type;location;lat;lon;timestamp;P1;durP1;ratioP1;P2;durP2;ratioP2
15402;SDS011;7799;53.478;10.170;2023-02-01T00:00:25;6.10;;;3.00;;
15402;SDS011;7799;53.478;10.170;2023-02-01T00:02:52;6.70;;;3.20;;
15402;SDS011;7799;53.478;10.170;2023-02-01T00:05:18;5.43;;;2.80;;
15402;SDS011;7799;53.478;10.170;2023-02-01T00:07:46;4.77;;;2.70;;
15402;SDS011;7799;53.478;10.170;2023-02-01T00:10:14;4.73;;;2.53;;
15402;SDS011;7799;53.478;10.170;2023-02-01T00:12:40;4.90;;;2.90;;
15402;SDS011;7799;53.478;10.170;2023-02-01T00:15:07;6.27;;;3.10;;
15402;SDS011;7799;53.478;10.170;2023-02-01T00:17:36;6.23;;;3.03;;
15402;SDS011;7799;53.478;10.170;2023-02-01T00:20:02;6.93;;;3.20;;
15402;SDS011;7799;53.478;10.170;2023-02-01T00:22:30;11.07;;;3.40;;
15402;SDS011;7799;53.478;10.170;2023-02-01T00:24:56;6.93;;;3.23;;
15402;SDS011;7799;53.478;10.170;2023-02-01T00:27:23;8.07;;;3.40;;
15402;SDS011;7799;53.478;10.170;2023-02-01T00:29:50;4.93;;;3.07;;
15402;SDS011;7799;53.478;10.170;2023-02-01T00:32:16;6.70;;;3.37;;
15402;SDS011;7799;53.478;10.170;2023-02-01T00:34:44;7.73;;;3.37;;
15402;SDS011;7799;53.478;10.170;2023-02-01T00:37:11;7.13;;;2.97;;
15402;SDS011;7799;53.478;10.170;2023-02-01T00:39:38;7.43;;;3.00;;
15402;SDS011;7799;53.478;10.170;2023-02-01T00:42:04;12.07;;;3.80;;
15402;SDS011;7799;53.478;10.170;2023-02-01T00:44:31;9.80;;;3.47;;
15402;SDS011;7799;53.478;10.170;2023-02-01T00:46:59;9.20;;;3.70;;
15402;SDS011;7799;53.478;10.170;2023-02-01T00:49:26;7.87;;;3.23;;
15402;SDS011;7799;53.478;10.170;2023-02-01T00:51:54;5.70;;;2.67;;
15402;SDS011;7799;53.478;10.170;2023-02-01T00:54:21;5.00;;;2.50;;
15402;SDS011;7799;53.478;10.170;2023-02-01T00:56:48;9.50;;;3.93;;
15402;SDS011;7799;53.478;10.170;2023-02-01T00:59:17;9.70;;;3.80;;
15402;SDS011;7799;53.478;10.170;2023-02-01T01:01:44;11.27;;;3.83;;
15402;SDS011;7799;53.478;10.170;2023-02-01T01:04:11;8.10;;;3.60;;
15402;SDS011;7799;53.478;10.170;2023-02-01T01:06:38;9.43;;;3.33;;
15402;SDS011;7799;53.478;10.170;2023-02-01T01:09:06;10.60;;;3.97;;
15402;SDS011;7799;53.478;10.170;2023-02-01T01:11:34;9.47;;;4.10;;
15402;SDS011;7799;53.478;10.170;2023-02-01T01:14:03;11.67;;;3.70;;
15402;SDS011;7799;53.478;10.170;2023-02-01T01:16:31;10.20;;;3.03;;
15402;SDS011;7799;53.478;10.170;2023-02-01T01:18:58;10.23;;;3.60;;
15402;SDS011;7799;53.478;10.170;2023-02-01T01:21:25;13.97;;;4.03;;
15402;SDS011;7799;53.478;10.170;2023-02-01T01:23:52;10.50;;;3.80;;
15402;SDS011;7799;53.478;10.170;2023-02-01T01:26:21;12.33;;;4.07;;
15402;SDS011;7799;53.478;10.170;2023-02-01T01:28:49;11.13;;;4.07;;
15402;SDS011;7799;53.478;10.170;2023-02-01T01:31:17;9.97;;;3.10;;
15402;SDS011;7799;53.478;10.170;2023-02-01T01:33:47;10.73;;;3.10;;
15402;SDS011;7799;53.478;10.170;2023-02-01T01:36:15;8.03;;;3.20;;
15402;SDS011;7799;53.478;10.170;2023-02-01T01:38:41;10.73;;;3.43;;
15402;SDS011;7799;53.478;10.170;2023-02-01T01:41:09;10.43;;;3.70;;
15402;SDS011;7799;53.478;10.170;2023-02-01T01:46:30;10.87;;;3.47;;
15402;SDS011;7799;53.478;10.170;2023-02-01T01:49:01;7.37;;;3.40;;
15402;SDS011;7799;53.478;10.170;2023-02-01T01:51:31;8.53;;;2.97;;
15402;SDS011;7799;53.478;10.170;2023-02-01T01:54:00;9.07;;;3.13;;
15402;SDS011;7799;53.478;10.170;2023-02-01T01:56:29;8.50;;;3.23;;
15402;SDS011;7799;53.478;10.170;2023-02-01T01:58:57;8.23;;;3.30;;
15402;SDS011;7799;53.478;10.170;2023-02-01T02:01:25;9.37;;;3.17;;
15402;SDS011;7799;53.478;10.170;2023-02-01T02:03:52;6.97;;;3.00;;
15402;SDS011;7799;53.478;10.170;2023-02-01T02:06:23;8.70;;;3.20;;
15402;SDS011;7799;53.478;10.170;2023-02-01T02:08:54;8.37;;;3.37;;
15402;SDS011;7799;53.478;10.170;2023-02-01T02:11:21;11.43;;;3.60;;
15402;SDS011;7799;53.478;10.170;2023-02-01T02:13:48;7.33;;;3.73;;
15402;SDS011;7799;53.478;10.170;2023-02-01T02:16:24;9.87;;;3.87;;
15402;SDS011;7799;53.478;10.170;2023-02-01T02:19:06;6.37;;;3.10;;
15402;SDS011;7799;53.478;10.170;2023-02-01T02:21:52;9.43;;;3.37;;
15402;SDS011;7799;53.478;10.170;2023-02-01T02:24:34;6.50;;;2.63;;
15402;SDS011;7799;53.478;10.170;2023-02-01T02:27:12;6.33;;;3.53;;
15402;SDS011;7799;53.478;10.170;2023-02-01T02:36:16;7.33;;;3.83;;
15402;SDS011;7799;53.478;10.170;2023-02-01T02:38:47;6.50;;;3.00;;
15402;SDS011;7799;53.478;10.170;2023-02-01T02:41:19;10.33;;;3.60;;
15402;SDS011;7799;53.478;10.170;2023-02-01T02:44:09;7.17;;;2.83;;
15402;SDS011;7799;53.478;10.170;2023-02-01T02:47:07;8.30;;;3.30;;
15402;SDS011;7799;53.478;10.170;2023-02-01T02:49:58;10.07;;;3.47;;
15402;SDS011;7799;53.478;10.170;2023-02-01T02:52:48;10.20;;;3.70;;
15402;SDS011;7799;53.478;10.170;2023-02-01T02:55:37;10.30;;;3.90;;
15402;SDS011;7799;53.478;10.170;2023-02-01T02:58:05;12.43;;;3.90;;
15402;SDS011;7799;53.478;10.170;2023-02-01T03:00:51;8.07;;;4.00;;
15402;SDS011;7799;53.478;10.170;2023-02-01T03:03:39;13.37;;;4.10;;
15402;SDS011;7799;53.478;10.170;2023-02-01T03:06:25;10.27;;;2.77;;
15402;SDS011;7799;53.478;10.170;2023-02-01T03:08:53;8.97;;;3.87;;
15402;SDS011;7799;53.478;10.170;2023-02-01T03:11:22;7.57;;;3.10;;
15402;SDS011;7799;53.478;10.170;2023-02-01T03:14:09;7.23;;;3.07;;
15402;SDS011;7799;53.478;10.170;2023-02-01T03:16:36;7.80;;;3.30;;
15402;SDS011;7799;53.478;10.170;2023-02-01T03:19:08;7.27;;;2.67;;
15402;SDS011;7799;53.478;10.170;2023-02-01T03:21:41;8.17;;;2.90;;
15402;SDS011;7799;53.478;10.170;2023-02-01T03:24:10;7.57;;;2.90;;
15402;SDS011;7799;53.478;10.170;2023-02-01T03:26:40;6.33;;;2.80;;
15402;SDS011;7799;53.478;10.170;2023-02-01T03:29:11;7.70;;;3.30;;
15402;SDS011;7799;53.478;10.170;2023-02-01T03:31:41;7.53;;;2.80;;
15402;SDS011;7799;53.478;10.170;2023-02-01T03:34:08;5.80;;;3.13;;
15402;SDS011;7799;53.478;10.170;2023-02-01T03:36:37;6.97;;;2.87;;
15402;SDS011;7799;53.478;10.170;2023-02-01T03:39:09;8.27;;;3.10;;
15402;SDS011;7799;53.478;10.170;2023-02-01T03:41:40;8.40;;;2.77;;
15402;SDS011;7799;53.478;10.170;2023-02-01T03:44:10;6.37;;;4.73;;
15402;SDS011;7799;53.478;10.170;2023-02-01T03:46:40;3.47;;;2.17;;
15402;SDS011;7799;53.478;10.170;2023-02-01T03:49:13;4.30;;;1.90;;
15402;SDS011;7799;53.478;10.170;2023-02-01T03:51:43;3.73;;;1.60;;
15402;SDS011;7799;53.478;10.170;2023-02-01T03:54:12;3.03;;;1.20;;
15402;SDS011;7799;53.478;10.170;2023-02-01T03:56:40;2.07;;;0.87;;
15402;SDS011;7799;53.478;10.170;2023-02-01T03:59:09;2.07;;;1.00;;
15402;SDS011;7799;53.478;10.170;2023-02-01T04:01:37;1.00;;;1.00;;
15402;SDS011;7799;53.478;10.170;2023-02-01T04:04:03;3.80;;;1.30;;
15402;SDS011;7799;53.478;10.170;2023-02-01T04:06:31;2.40;;;1.20;;
15402;SDS011;7799;53.478;10.170;2023-02-01T04:09:01;1.47;;;1.27;;
15402;SDS011;7799;53.478;10.170;2023-02-01T04:11:29;5.30;;;1.47;;
15402;SDS011;7799;53.478;10.170;2023-02-01T04:13:56;5.57;;;2.17;;
15402;SDS011;7799;53.478;10.170;2023-02-01T04:16:22;4.07;;;2.00;;
15402;SDS011;7799;53.478;10.170;2023-02-01T04:18:49;6.20;;;2.43;;
15402;SDS011;7799;53.478;10.170;2023-02-01T04:21:16;3.77;;;1.90;;
15402;SDS011;7799;53.478;10.170;2023-02-01T04:23:42;3.33;;;1.90;;
15402;SDS011;7799;53.478;10.170;2023-02-01T04:26:09;4.77;;;1.90;;
15402;SDS011;7799;53.478;10.170;2023-02-01T04:28:37;3.97;;;1.83;;
15402;SDS011;7799;53.478;10.170;2023-02-01T04:31:04;7.10;;;2.27;;
15402;SDS011;7799;53.478;10.170;2023-02-01T04:33:30;2.67;;;2.00;;
15402;SDS011;7799;53.478;10.170;2023-02-01T04:35:57;2.47;;;1.90;;
15402;SDS011;7799;53.478;10.170;2023-02-01T04:38:24;6.73;;;2.87;;
15402;SDS011;7799;53.478;10.170;2023-02-01T04:40:50;5.23;;;2.07;;
15402;SDS011;7799;53.478;10.170;2023-02-01T04:43:17;6.57;;;1.83;;
15402;SDS011;7799;53.478;10.170;2023-02-01T04:45:48;4.27;;;1.63;;
15402;SDS011;7799;53.478;10.170;2023-02-01T04:48:15;4.43;;;2.10;;
15402;SDS011;7799;53.478;10.170;2023-02-01T04:50:42;4.80;;;2.30;;
15402;SDS011;7799;53.478;10.170;2023-02-01T04:53:12;6.13;;;2.60;;
15402;SDS011;7799;53.478;10.170;2023-02-01T04:55:39;4.60;;;2.17;;
15402;SDS011;7799;53.478;10.170;2023-02-01T04:58:06;3.07;;;1.60;;
15402;SDS011;7799;53.478;10.170;2023-02-01T05:00:32;4.83;;;2.00;;
15402;SDS011;7799;53.478;10.170;2023-02-01T05:03:00;3.50;;;2.13;;
15402;SDS011;7799;53.478;10.170;2023-02-01T05:05:27;2.77;;;1.80;;
15402;SDS011;7799;53.478;10.170;2023-02-01T05:07:54;3.40;;;2.07;;
15402;SDS011;7799;53.478;10.170;2023-02-01T05:10:21;5.37;;;2.13;;
15402;SDS011;7799;53.478;10.170;2023-02-01T05:12:48;4.93;;;1.80;;
15402;SDS011;7799;53.478;10.170;2023-02-01T05:15:32;4.37;;;1.83;;
15402;SDS011;7799;53.478;10.170;2023-02-01T05:17:58;1.77;;;1.40;;
15402;SDS011;7799;53.478;10.170;2023-02-01T05:20:26;1.17;;;1.00;;
15402;SDS011;7799;53.478;10.170;2023-02-01T05:22:53;2.57;;;1.37;;
15402;SDS011;7799;53.478;10.170;2023-02-01T05:25:20;2.13;;;1.10;;
15402;SDS011;7799;53.478;10.170;2023-02-01T05:27:46;2.00;;;1.03;;
15402;SDS011;7799;53.478;10.170;2023-02-01T05:30:13;1.23;;;1.00;;
15402;SDS011;7799;53.478;10.170;2023-02-01T05:32:40;1.47;;;0.90;;
15402;SDS011;7799;53.478;10.170;2023-02-01T05:35:07;0.90;;;0.90;;
15402;SDS011;7799;53.478;10.170;2023-02-01T05:37:36;1.50;;;0.80;;
15402;SDS011;7799;53.478;10.170;2023-02-01T05:40:03;0.67;;;0.67;;
15402;SDS011;7799;53.478;10.170;2023-02-01T05:42:30;0.70;;;0.70;;
15402;SDS011;7799;53.478;10.170;2023-02-01T05:44:57;0.77;;;0.77;;
15402;SDS011;7799;53.478;10.170;2023-02-01T05:47:23;0.70;;;0.70;;
15402;SDS011;7799;53.478;10.170;2023-02-01T05:49:50;0.70;;;0.70;;
15402;SDS011;7799;53.478;10.170;2023-02-01T05:52:17;0.87;;;0.80;;
15402;SDS011;7799;53.478;10.170;2023-02-01T05:54:45;0.80;;;0.80;;
15402;SDS011;7799;53.478;10.170;2023-02-01T05:57:13;1.00;;;1.00;;
15402;SDS011;7799;53.478;10.170;2023-02-01T05:59:39;1.23;;;1.20;;
15402;SDS011;7799;53.478;10.170;2023-02-01T06:02:09;1.10;;;1.00;;
15402;SDS011;7799;53.478;10.170;2023-02-01T06:04:36;0.97;;;0.97;;
15402;SDS011;7799;53.478;10.170;2023-02-01T06:07:03;1.00;;;1.00;;
15402;SDS011;7799;53.478;10.170;2023-02-01T06:09:30;1.00;;;1.00;;
15402;SDS011;7799;53.478;10.170;2023-02-01T06:11:58;1.10;;;1.10;;
15402;SDS011;7799;53.478;10.170;2023-02-01T06:14:26;1.00;;;1.00;;
15402;SDS011;7799;53.478;10.170;2023-02-01T06:16:52;1.10;;;1.10;;
15402;SDS011;7799;53.478;10.170;2023-02-01T06:19:19;1.03;;;1.03;;
15402;SDS011;7799;53.478;10.170;2023-02-01T06:21:46;1.30;;;1.20;;
15402;SDS011;7799;53.478;10.170;2023-02-01T06:24:12;1.10;;;1.10;;
15402;SDS011;7799;53.478;10.170;2023-02-01T06:26:39;1.23;;;1.13;;
15402;SDS011;7799;53.478;10.170;2023-02-01T06:29:09;1.30;;;1.20;;
15402;SDS011;7799;53.478;10.170;2023-02-01T06:31:36;1.33;;;1.30;;
15402;SDS011;7799;53.478;10.170;2023-02-01T06:34:02;1.10;;;1.10;;
15402;SDS011;7799;53.478;10.170;2023-02-01T06:36:29;1.40;;;1.30;;
15402;SDS011;7799;53.478;10.170;2023-02-01T06:38:56;1.47;;;1.40;;
15402;SDS011;7799;53.478;10.170;2023-02-01T06:41:24;1.50;;;1.40;;
15402;SDS011;7799;53.478;10.170;2023-02-01T06:43:51;1.90;;;1.57;;
15402;SDS011;7799;53.478;10.170;2023-02-01T06:46:19;1.93;;;1.80;;
15402;SDS011;7799;53.478;10.170;2023-02-01T06:48:46;1.60;;;1.50;;
15402;SDS011;7799;53.478;10.170;2023-02-01T06:51:19;1.80;;;1.70;;
15402;SDS011;7799;53.478;10.170;2023-02-01T06:53:47;4.37;;;2.10;;
15402;SDS011;7799;53.478;10.170;2023-02-01T06:56:14;5.03;;;2.00;;
15402;SDS011;7799;53.478;10.170;2023-02-01T06:58:40;3.13;;;2.10;;
15402;SDS011;7799;53.478;10.170;2023-02-01T07:01:08;4.17;;;2.00;;
15402;SDS011;7799;53.478;10.170;2023-02-01T07:03:36;1.90;;;1.80;;
15402;SDS011;7799;53.478;10.170;2023-02-01T07:06:03;3.50;;;1.97;;
15402;SDS011;7799;53.478;10.170;2023-02-01T07:08:31;2.33;;;2.13;;
15402;SDS011;7799;53.478;10.170;2023-02-01T07:11:01;6.17;;;2.53;;
15402;SDS011;7799;53.478;10.170;2023-02-01T07:13:28;3.37;;;2.87;;
15402;SDS011;7799;53.478;10.170;2023-02-01T07:15:57;3.23;;;3.03;;
15402;SDS011;7799;53.478;10.170;2023-02-01T07:18:24;3.93;;;3.40;;
15402;SDS011;7799;53.478;10.170;2023-02-01T07:20:52;2.70;;;2.40;;
15402;SDS011;7799;53.478;10.170;2023-02-01T07:23:18;3.57;;;2.63;;
15402;SDS011;7799;53.478;10.170;2023-02-01T07:25:45;4.83;;;3.23;;
15402;SDS011;7799;53.478;10.170;2023-02-01T07:28:12;6.17;;;2.80;;
15402;SDS011;7799;53.478;10.170;2023-02-01T07:30:39;3.77;;;2.23;;
15402;SDS011;7799;53.478;10.170;2023-02-01T07:33:06;3.00;;;2.30;;
15402;SDS011;7799;53.478;10.170;2023-02-01T07:35:33;5.23;;;2.83;;
15402;SDS011;7799;53.478;10.170;2023-02-01T07:38:02;3.80;;;2.20;;
15402;SDS011;7799;53.478;10.170;2023-02-01T07:40:28;4.27;;;2.50;;
15402;SDS011;7799;53.478;10.170;2023-02-01T07:42:55;4.80;;;2.93;;
15402;SDS011;7799;53.478;10.170;2023-02-01T07:45:22;4.17;;;3.00;;
15402;SDS011;7799;53.478;10.170;2023-02-01T07:47:50;3.80;;;2.90;;
15402;SDS011;7799;53.478;10.170;2023-02-01T07:50:17;5.27;;;2.70;;
15402;SDS011;7799;53.478;10.170;2023-02-01T07:52:44;3.13;;;2.60;;
15402;SDS011;7799;53.478;10.170;2023-02-01T07:55:12;5.93;;;3.07;;
15402;SDS011;7799;53.478;10.170;2023-02-01T07:57:38;7.27;;;3.00;;
15402;SDS011;7799;53.478;10.170;2023-02-01T08:00:05;8.23;;;3.80;;
15402;SDS011;7799;53.478;10.170;2023-02-01T08:02:50;7.63;;;3.67;;
15402;SDS011;7799;53.478;10.170;2023-02-01T08:05:17;6.13;;;3.27;;
15402;SDS011;7799;53.478;10.170;2023-02-01T08:07:47;6.10;;;3.20;;
15402;SDS011;7799;53.478;10.170;2023-02-01T08:10:16;7.97;;;3.17;;
15402;SDS011;7799;53.478;10.170;2023-02-01T08:12:43;5.73;;;3.30;;
15402;SDS011;7799;53.478;10.170;2023-02-01T08:15:13;6.73;;;3.57;;
15402;SDS011;7799;53.478;10.170;2023-02-01T08:17:40;8.17;;;3.97;;
15402;SDS011;7799;53.478;10.170;2023-02-01T08:20:07;9.10;;;4.30;;
15402;SDS011;7799;53.478;10.170;2023-02-01T08:22:35;11.57;;;4.17;;
15402;SDS011;7799;53.478;10.170;2023-02-01T08:25:02;8.57;;;4.20;;
15402;SDS011;7799;53.478;10.170;2023-02-01T08:27:30;9.93;;;4.03;;
15402;SDS011;7799;53.478;10.170;2023-02-01T08:29:58;9.63;;;3.93;;
15402;SDS011;7799;53.478;10.170;2023-02-01T08:32:25;9.30;;;3.93;;
15402;SDS011;7799;53.478;10.170;2023-02-01T08:34:52;8.10;;;3.97;;
15402;SDS011;7799;53.478;10.170;2023-02-01T08:37:19;6.87;;;3.93;;
15402;SDS011;7799;53.478;10.170;2023-02-01T08:39:46;6.80;;;4.10;;
15402;SDS011;7799;53.478;10.170;2023-02-01T08:42:15;10.90;;;4.33;;
15402;SDS011;7799;53.478;10.170;2023-02-01T08:45:01;7.93;;;4.23;;
15402;SDS011;7799;53.478;10.170;2023-02-01T08:47:28;6.80;;;4.30;;
15402;SDS011;7799;53.478;10.170;2023-02-01T08:49:55;10.57;;;5.03;;
15402;SDS011;7799;53.478;10.170;2023-02-01T08:52:21;10.77;;;5.07;;
15402;SDS011;7799;53.478;10.170;2023-02-01T08:54:48;11.00;;;5.03;;
15402;SDS011;7799;53.478;10.170;2023-02-01T08:57:15;8.23;;;4.60;;
15402;SDS011;7799;53.478;10.170;2023-02-01T08:59:42;7.73;;;4.70;;
15402;SDS011;7799;53.478;10.170;2023-02-01T09:02:11;10.10;;;5.10;;
15402;SDS011;7799;53.478;10.170;2023-02-01T09:04:38;8.73;;;5.00;;
15402;SDS011;7799;53.478;10.170;2023-02-01T09:07:05;10.37;;;5.03;;
15402;SDS011;7799;53.478;10.170;2023-02-01T09:09:31;6.47;;;4.60;;
15402;SDS011;7799;53.478;10.170;2023-02-01T09:11:58;10.80;;;4.50;;
15402;SDS011;7799;53.478;10.170;2023-02-01T09:14:25;10.43;;;5.17;;
15402;SDS011;7799;53.478;10.170;2023-02-01T09:16:51;10.23;;;4.80;;
15402;SDS011;7799;53.478;10.170;2023-02-01T09:19:19;11.63;;;5.07;;
15402;SDS011;7799;53.478;10.170;2023-02-01T09:21:46;8.70;;;4.50;;
15402;SDS011;7799;53.478;10.170;2023-02-01T09:24:13;9.17;;;5.13;;
15402;SDS011;7799;53.478;10.170;2023-02-01T09:26:40;8.37;;;5.90;;
15402;SDS011;7799;53.478;10.170;2023-02-01T09:29:06;9.47;;;5.97;;
15402;SDS011;7799;53.478;10.170;2023-02-01T09:31:36;7.83;;;4.90;;
15402;SDS011;7799;53.478;10.170;2023-02-01T09:34:03;7.37;;;4.83;;
15402;SDS011;7799;53.478;10.170;2023-02-01T09:36:31;13.13;;;5.17;;
15402;SDS011;7799;53.478;10.170;2023-02-01T09:38:58;10.13;;;5.20;;
15402;SDS011;7799;53.478;10.170;2023-02-01T09:41:27;5.30;;;4.10;;
15402;SDS011;7799;53.478;10.170;2023-02-01T09:43:59;6.33;;;4.53;;
15402;SDS011;7799;53.478;10.170;2023-02-01T09:46:34;7.83;;;5.00;;
15402;SDS011;7799;53.478;10.170;2023-02-01T09:49:02;7.50;;;5.17;;
15402;SDS011;7799;53.478;10.170;2023-02-01T09:51:33;6.80;;;4.90;;
15402;SDS011;7799;53.478;10.170;2023-02-01T09:54:04;6.90;;;5.00;;
15402;SDS011;7799;53.478;10.170;2023-02-01T09:56:34;5.57;;;4.87;;
15402;SDS011;7799;53.478;10.170;2023-02-01T09:59:04;7.40;;;4.80;;
15402;SDS011;7799;53.478;10.170;2023-02-01T10:01:36;7.97;;;5.87;;
15402;SDS011;7799;53.478;10.170;2023-02-01T10:04:04;9.50;;;6.33;;
15402;SDS011;7799;53.478;10.170;2023-02-01T10:09:35;7.23;;;5.70;;
15402;SDS011;7799;53.478;10.170;2023-02-01T10:15:15;6.67;;;4.83;;
15402;SDS011;7799;53.478;10.170;2023-02-01T10:17:54;6.93;;;4.87;;
15402;SDS011;7799;53.478;10.170;2023-02-01T10:20:27;9.47;;;4.73;;
15402;SDS011;7799;53.478;10.170;2023-02-01T10:23:00;8.43;;;4.20;;
15402;SDS011;7799;53.478;10.170;2023-02-01T10:25:36;6.47;;;4.00;;
15402;SDS011;7799;53.478;10.170;2023-02-01T10:28:03;7.27;;;3.83;;
15402;SDS011;7799;53.478;10.170;2023-02-01T10:30:31;6.43;;;3.53;;
15402;SDS011;7799;53.478;10.170;2023-02-01T10:33:07;7.73;;;3.90;;
15402;SDS011;7799;53.478;10.170;2023-02-01T10:35:41;8.07;;;3.70;;
15402;SDS011;7799;53.478;10.170;2023-02-01T10:38:11;8.60;;;4.27;;
15402;SDS011;7799;53.478;10.170;2023-02-01T10:40:44;9.63;;;3.93;;
15402;SDS011;7799;53.478;10.170;2023-02-01T10:43:11;10.13;;;3.63;;
15402;SDS011;7799;53.478;10.170;2023-02-01T10:45:38;5.33;;;3.70;;
15402;SDS011;7799;53.478;10.170;2023-02-01T10:48:07;6.83;;;3.70;;
15402;SDS011;7799;53.478;10.170;2023-02-01T10:50:35;4.93;;;3.33;;
15402;SDS011;7799;53.478;10.170;2023-02-01T10:53:06;5.60;;;3.97;;
15402;SDS011;7799;53.478;10.170;2023-02-01T10:55:39;5.57;;;4.20;;
15402;SDS011;7799;53.478;10.170;2023-02-01T10:58:10;4.20;;;3.70;;
15402;SDS011;7799;53.478;10.170;2023-02-01T11:00:43;8.37;;;4.17;;
15402;SDS011;7799;53.478;10.170;2023-02-01T11:06:17;5.93;;;3.60;;
15402;SDS011;7799;53.478;10.170;2023-02-01T11:08:47;7.40;;;4.03;;
15402;SDS011;7799;53.478;10.170;2023-02-01T11:11:15;5.60;;;3.70;;
15402;SDS011;7799;53.478;10.170;2023-02-01T11:13:42;4.07;;;3.67;;
15402;SDS011;7799;53.478;10.170;2023-02-01T11:16:11;5.33;;;3.90;;
15402;SDS011;7799;53.478;10.170;2023-02-01T11:18:39;5.90;;;3.70;;
15402;SDS011;7799;53.478;10.170;2023-02-01T11:21:06;8.47;;;4.07;;
15402;SDS011;7799;53.478;10.170;2023-02-01T11:23:39;5.67;;;3.60;;
15402;SDS011;7799;53.478;10.170;2023-02-01T11:26:11;3.77;;;3.47;;
15402;SDS011;7799;53.478;10.170;2023-02-01T11:28:40;10.20;;;3.83;;
15402;SDS011;7799;53.478;10.170;2023-02-01T11:31:12;6.70;;;3.70;;
15402;SDS011;7799;53.478;10.170;2023-02-01T11:33:43;4.70;;;3.47;;
15402;SDS011;7799;53.478;10.170;2023-02-01T11:36:13;8.27;;;3.83;;
15402;SDS011;7799;53.478;10.170;2023-02-01T11:38:45;5.37;;;3.40;;
15402;SDS011;7799;53.478;10.170;2023-02-01T11:41:14;3.93;;;3.50;;
15402;SDS011;7799;53.478;10.170;2023-02-01T11:43:52;6.13;;;4.10;;
15402;SDS011;7799;53.478;10.170;2023-02-01T11:46:22;7.90;;;4.40;;
15402;SDS011;7799;53.478;10.170;2023-02-01T11:48:52;7.23;;;4.43;;
15402;SDS011;7799;53.478;10.170;2023-02-01T11:51:26;6.47;;;4.07;;
15402;SDS011;7799;53.478;10.170;2023-02-01T11:54:06;10.97;;;4.53;;
15402;SDS011;7799;53.478;10.170;2023-02-01T11:56:41;6.50;;;4.07;;
15402;SDS011;7799;53.478;10.170;2023-02-01T11:59:18;6.50;;;4.33;;
15402;SDS011;7799;53.478;10.170;2023-02-01T12:01:54;4.50;;;3.83;;
15402;SDS011;7799;53.478;10.170;2023-02-01T12:07:35;5.90;;;4.00;;
15402;SDS011;7799;53.478;10.170;2023-02-01T12:10:18;5.40;;;3.90;;
15402;SDS011;7799;53.478;10.170;2023-02-01T12:12:53;6.77;;;3.70;;
15402;SDS011;7799;53.478;10.170;2023-02-01T12:15:27;4.93;;;3.60;;
15402;SDS011;7799;53.478;10.170;2023-02-01T12:18:05;3.90;;;3.30;;
15402;SDS011;7799;53.478;10.170;2023-02-01T12:20:57;4.73;;;3.40;;
15402;SDS011;7799;53.478;10.170;2023-02-01T12:23:33;3.83;;;3.40;;
15402;SDS011;7799;53.478;10.170;2023-02-01T12:26:27;5.40;;;3.20;;
15402;SDS011;7799;53.478;10.170;2023-02-01T12:29:17;4.80;;;3.33;;
15402;SDS011;7799;53.478;10.170;2023-02-01T12:31:57;3.70;;;3.33;;
15402;SDS011;7799;53.478;10.170;2023-02-01T12:34:37;3.80;;;3.37;;
15402;SDS011;7799;53.478;10.170;2023-02-01T12:37:13;4.10;;;3.80;;
15402;SDS011;7799;53.478;10.170;2023-02-01T12:39:48;8.03;;;4.03;;
15402;SDS011;7799;53.478;10.170;2023-02-01T12:42:21;5.27;;;3.53;;
15402;SDS011;7799;53.478;10.170;2023-02-01T12:44:52;4.23;;;3.43;;
15402;SDS011;7799;53.478;10.170;2023-02-01T12:47:24;3.83;;;3.40;;
15402;SDS011;7799;53.478;10.170;2023-02-01T12:49:54;3.73;;;3.40;;
15402;SDS011;7799;53.478;10.170;2023-02-01T12:52:24;2.80;;;2.60;;
15402;SDS011;7799;53.478;10.170;2023-02-01T12:55:00;3.20;;;3.00;;
15402;SDS011;7799;53.478;10.170;2023-02-01T12:57:30;2.77;;;2.60;;
15402;SDS011;7799;53.478;10.170;2023-02-01T13:00:03;2.80;;;2.70;;
15402;SDS011;7799;53.478;10.170;2023-02-01T13:02:35;2.97;;;2.77;;
15402;SDS011;7799;53.478;10.170;2023-02-01T13:05:11;2.50;;;2.40;;
15402;SDS011;7799;53.478;10.170;2023-02-01T13:07:41;2.40;;;2.30;;
15402;SDS011;7799;53.478;10.170;2023-02-01T13:10:12;2.50;;;2.40;;
15402;SDS011;7799;53.478;10.170;2023-02-01T13:12:43;2.50;;;2.40;;
15402;SDS011;7799;53.478;10.170;2023-02-01T13:15:16;2.43;;;2.40;;
15402;SDS011;7799;53.478;10.170;2023-02-01T13:17:45;2.60;;;2.50;;
15402;SDS011;7799;53.478;10.170;2023-02-01T13:20:16;2.67;;;2.57;;
15402;SDS011;7799;53.478;10.170;2023-02-01T13:22:51;2.70;;;2.60;;
15402;SDS011;7799;53.478;10.170;2023-02-01T13:25:25;2.93;;;2.83;;
15402;SDS011;7799;53.478;10.170;2023-02-01T13:27:56;2.80;;;2.70;;
15402;SDS011;7799;53.478;10.170;2023-02-01T13:30:29;3.00;;;2.90;;
15402;SDS011;7799;53.478;10.170;2023-02-01T13:33:05;2.93;;;2.83;;
15402;SDS011;7799;53.478;10.170;2023-02-01T13:42:02;3.33;;;3.23;;
15402;SDS011;7799;53.478;10.170;2023-02-01T13:44:31;3.37;;;3.17;;
15402;SDS011;7799;53.478;10.170;2023-02-01T13:47:02;3.07;;;2.97;;
15402;SDS011;7799;53.478;10.170;2023-02-01T13:49:36;3.10;;;3.00;;
15402;SDS011;7799;53.478;10.170;2023-02-01T13:52:06;3.00;;;2.90;;
15402;SDS011;7799;53.478;10.170;2023-02-01T13:54:48;2.90;;;2.80;;
15402;SDS011;7799;53.478;10.170;2023-02-01T13:57:35;3.33;;;3.23;;
15402;SDS011;7799;53.478;10.170;2023-02-01T14:00:07;3.43;;;3.23;;
15402;SDS011;7799;53.478;10.170;2023-02-01T14:06:01;2.60;;;2.50;;
15402;SDS011;7799;53.478;10.170;2023-02-01T14:08:43;2.80;;;2.60;;
15402;SDS011;7799;53.478;10.170;2023-02-01T14:11:34;2.60;;;2.40;;
15402;SDS011;7799;53.478;10.170;2023-02-01T14:17:29;2.47;;;2.37;;
15402;SDS011;7799;53.478;10.170;2023-02-01T14:23:16;3.00;;;2.90;;
15402;SDS011;7799;53.478;10.170;2023-02-01T14:25:58;3.00;;;2.70;;
15402;SDS011;7799;53.478;10.170;2023-02-01T14:28:39;3.00;;;2.80;;
15402;SDS011;7799;53.478;10.170;2023-02-01T14:34:13;2.70;;;2.60;;
15402;SDS011;7799;53.478;10.170;2023-02-01T14:36:44;4.00;;;2.60;;
15402;SDS011;7799;53.478;10.170;2023-02-01T14:39:21;2.00;;;1.90;;
15402;SDS011;7799;53.478;10.170;2023-02-01T14:42:02;2.47;;;2.27;;
15402;SDS011;7799;53.478;10.170;2023-02-01T14:44:32;3.13;;;2.80;;
15402;SDS011;7799;53.478;10.170;2023-02-01T14:50:03;3.30;;;3.10;;
15402;SDS011;7799;53.478;10.170;2023-02-01T14:52:37;3.77;;;2.97;;
15402;SDS011;7799;53.478;10.170;2023-02-01T14:55:11;2.50;;;2.10;;
15402;SDS011;7799;53.478;10.170;2023-02-01T14:57:41;2.20;;;2.10;;
15402;SDS011;7799;53.478;10.170;2023-02-01T15:00:16;2.20;;;2.00;;
15402;SDS011;7799;53.478;10.170;2023-02-01T15:02:45;2.30;;;2.20;;
15402;SDS011;7799;53.478;10.170;2023-02-01T15:05:22;3.23;;;2.93;;
15402;SDS011;7799;53.478;10.170;2023-02-01T15:07:56;2.70;;;2.50;;
15402;SDS011;7799;53.478;10.170;2023-02-01T15:10:26;5.07;;;2.50;;
15402;SDS011;7799;53.478;10.170;2023-02-01T15:12:53;4.00;;;2.67;;
15402;SDS011;7799;53.478;10.170;2023-02-01T15:15:20;3.83;;;3.03;;
15402;SDS011;7799;53.478;10.170;2023-02-01T15:17:49;5.20;;;2.90;;
15402;SDS011;7799;53.478;10.170;2023-02-01T15:20:17;5.60;;;3.13;;
15402;SDS011;7799;53.478;10.170;2023-02-01T15:22:53;3.60;;;3.10;;
15402;SDS011;7799;53.478;10.170;2023-02-01T15:25:22;3.63;;;3.10;;
15402;SDS011;7799;53.478;10.170;2023-02-01T15:27:50;3.60;;;3.13;;
15402;SDS011;7799;53.478;10.170;2023-02-01T15:30:18;4.07;;;3.00;;
15402;SDS011;7799;53.478;10.170;2023-02-01T15:32:47;2.83;;;2.50;;
15402;SDS011;7799;53.478;10.170;2023-02-01T15:35:31;3.67;;;2.90;;
15402;SDS011;7799;53.478;10.170;2023-02-01T15:40:52;2.97;;;2.50;;
15402;SDS011;7799;53.478;10.170;2023-02-01T15:43:21;5.23;;;2.40;;
15402;SDS011;7799;53.478;10.170;2023-02-01T15:45:48;3.73;;;2.53;;
15402;SDS011;7799;53.478;10.170;2023-02-01T15:48:19;3.53;;;2.37;;
15402;SDS011;7799;53.478;10.170;2023-02-01T15:50:49;2.33;;;2.13;;